sensor_id;sensor_type;location;lat;lon;timestamp;pressure;altitude;pressure_sealevel;temperature;humidity
28306;BME280;7516;43.570;1.448;2023-03-16T00:00:18;99569.06;;;8.38;100.00
28306;BME280;7516;43.570;1.448;2023-03-16T00:02:46;99566.78;;;8.35;100.00
28306;BME280;7516;43.570;1.448;2023-03-16T00:05:13;99566.13;;;8.33;100.00
28306;BME280;7516;43.570;1.448;2023-03-16T00:07:41;99561.06;;;8.31;100.00
28306;BME280;7516;43.570;1.448;2023-03-16T00:10:10;99562.97;;;8.29;100.00
28306;BME280;7516;43.570;1.448;2023-03-16T00:12:38;99566.06;;;8.24;100.00
28306;BME280;7516;43.570;1.448;2023-03-16T00:15:08;99561.69;;;8.25;100.00
28306;BME280;7516;43.570;1.448;2023-03-16T00:17:38;99549.75;;;8.22;100.00
28306;BME280;7516;43.570;1.448;2023-03-16T00:20:06;99550.06;;;8.19;100.00
28306;BME280;7516;43.570;1.448;2023-03-16T00:22:34;99548.63;;;8.17;100.00
28306;BME280;7516;43.570;1.448;2023-03-16T00:25:01;99554.16;;;8.14;100.00
28306;BME280;7516;43.570;1.448;2023-03-16T00:27:29;99540.44;;;8.12;100.00
28306;BME280;7516;43.570;1.448;2023-03-16T00:29:57;99537.16;;;8.10;100.00
28306;BME280;7516;43.570;1.448;2023-03-16T00:32:26;99530.16;;;8.10;100.00
28306;BME280;7516;43.570;1.448;2023-03-16T00:34:55;99530.00;;;8.12;100.00
28306;BME280;7516;43.570;1.448;2023-03-16T00:37:24;99525.91;;;8.09;100.00
28306;BME280;7516;43.570;1.448;2023-03-16T00:39:53;99522.81;;;8.06;100.00
28306;BME280;7516;43.570;1.448;2023-03-16T00:42:23;99517.09;;;8.02;100.00
28306;BME280;7516;43.570;1.448;2023-03-16T00:44:53;99519.06;;;8.00;100.00
28306;BME280;7516;43.570;1.448;2023-03-16T00:47:22;99518.41;;;7.98;100.00
28306;BME280;7516;43.570;1.448;2023-03-16T00:49:50;99514.47;;;7.94;100.00
28306;BME280;7516;43.570;1.448;2023-03-16T00:52:19;99507.81;;;7.91;100.00
28306;BME280;7516;43.570;1.448;2023-03-16T00:54:47;99508.94;;;7.89;100.00
28306;BME280;7516;43.570;1.448;2023-03-16T00:57:20;99510.88;;;7.87;100.00
28306;BME280;7516;43.570;1.448;2023-03-16T00:59:50;99496.34;;;7.84;100.00
28306;BME280;7516;43.570;1.448;2023-03-16T01:02:18;99490.81;;;7.79;100.00
28306;BME280;7516;43.570;1.448;2023-03-16T01:04:48;99494.53;;;7.77;100.00
28306;BME280;7516;43.570;1.448;2023-03-16T01:07:18;99487.06;;;7.74;100.00
28306;BME280;7516;43.570;1.448;2023-03-16T01:09:47;99496.81;;;7.72;100.00
28306;BME280;7516;43.570;1.448;2023-03-16T01:12:16;99490.28;;;7.68;100.00
28306;BME280;7516;43.570;1.448;2023-03-16T01:14:45;99490.28;;;7.68;100.00
28306;BME280;7516;43.570;1.448;2023-03-16T01:17:14;99483.75;;;7.64;100.00
28306;BME280;7516;43.570;1.448;2023-03-16T01:19:43;99479.81;;;7.60;100.00
28306;BME280;7516;43.570;1.448;2023-03-16T01:22:11;99480.94;;;7.57;100.00
28306;BME280;7516;43.570;1.448;2023-03-16T01:24:41;99469.06;;;7.54;100.00
28306;BME280;7516;43.570;1.448;2023-03-16T01:27:10;99466.47;;;7.54;100.00
28306;BME280;7516;43.570;1.448;2023-03-16T01:29:39;99464.16;;;7.51;100.00
28306;BME280;7516;43.570;1.448;2023-03-16T01:32:09;99468.88;;;7.48;100.00
28306;BME280;7516;43.570;1.448;2023-03-16T01:34:37;99467.25;;;7.47;100.00
28306;BME280;7516;43.570;1.448;2023-03-16T01:37:04;99456.16;;;7.45;100.00
28306;BME280;7516;43.570;1.448;2023-03-16T01:39:32;99455.66;;;7.41;100.00
28306;BME280;7516;43.570;1.448;2023-03-16T01:42:01;99449.47;;;7.42;100.00
28306;BME280;7516;43.570;1.448;2023-03-16T01:44:47;99448.19;;;7.38;100.00
28306;BME280;7516;43.570;1.448;2023-03-16T01:47:16;99439.69;;;7.36;100.00
28306;BME280;7516;43.570;1.448;2023-03-16T01:49:45;99437.38;;;7.33;100.00
28306;BME280;7516;43.570;1.448;2023-03-16T01:52:15;99440.00;;;7.33;100.00
28306;BME280;7516;43.570;1.448;2023-03-16T01:54:46;99437.88;;;7.29;100.00
28306;BME280;7516;43.570;1.448;2023-03-16T01:57:18;99435.41;;;7.27;100.00
28306;BME280;7516;43.570;1.448;2023-03-16T01:59:49;99443.25;;;7.27;100.00
28306;BME280;7516;43.570;1.448;2023-03-16T02:02:22;99433.13;;;7.24;100.00
28306;BME280;7516;43.570;1.448;2023-03-16T02:04:54;99426.44;;;7.22;100.00
28306;BME280;7516;43.570;1.448;2023-03-16T02:07:26;99427.25;;;7.22;100.00
28306;BME280;7516;43.570;1.448;2023-03-16T02:09:57;99428.41;;;7.20;100.00
28306;BME280;7516;43.570;1.448;2023-03-16T02:12:29;99420.06;;;7.16;100.00
28306;BME280;7516;43.570;1.448;2023-03-16T02:14:57;99417.75;;;7.13;100.00
28306;BME280;7516;43.570;1.448;2023-03-16T02:17:27;99418.75;;;7.12;100.00
28306;BME280;7516;43.570;1.448;2023-03-16T02:20:04;99405.06;;;7.10;100.00
28306;BME280;7516;43.570;1.448;2023-03-16T02:22:38;99405.38;;;7.07;100.00
28306;BME280;7516;43.570;1.448;2023-03-16T02:25:08;99404.72;;;7.05;100.00
28306;BME280;7516;43.570;1.448;2023-03-16T02:27:42;99403.25;;;7.02;100.00
28306;BME280;7516;43.570;1.448;2023-03-16T02:30:15;99400.97;;;6.99;100.00
28306;BME280;7516;43.570;1.448;2023-03-16T02:32:44;99394.41;;;6.95;100.00
28306;BME280;7516;43.570;1.448;2023-03-16T02:35:12;99400.78;;;6.93;100.00
28306;BME280;7516;43.570;1.448;2023-03-16T02:37:40;99383.50;;;6.92;100.00
28306;BME280;7516;43.570;1.448;2023-03-16T02:40:21;99392.44;;;6.89;100.00
28306;BME280;7516;43.570;1.448;2023-03-16T02:42:53;99389.16;;;6.87;100.00
28306;BME280;7516;43.570;1.448;2023-03-16T02:45:25;99383.63;;;6.82;100.00
28306;BME280;7516;43.570;1.448;2023-03-16T02:47:54;99370.09;;;6.78;100.00
28306;BME280;7516;43.570;1.448;2023-03-16T02:50:24;99368.78;;;6.74;100.00
28306;BME280;7516;43.570;1.448;2023-03-16T02:52:51;99366.50;;;6.71;100.00
28306;BME280;7516;43.570;1.448;2023-03-16T02:55:19;99369.09;;;6.71;100.00
28306;BME280;7516;43.570;1.448;2023-03-16T02:57:47;99355.75;;;6.66;100.00
28306;BME280;7516;43.570;1.448;2023-03-16T03:00:15;99341.25;;;6.64;100.00
28306;BME280;7516;43.570;1.448;2023-03-16T03:02:45;99340.56;;;6.62;100.00
28306;BME280;7516;43.570;1.448;2023-03-16T03:05:13;99342.50;;;6.60;100.00
28306;BME280;7516;43.570;1.448;2023-03-16T03:07:40;99339.41;;;6.56;100.00
28306;BME280;7516;43.570;1.448;2023-03-16T03:10:09;99337.13;;;6.53;100.00
28306;BME280;7516;43.570;1.448;2023-03-16T03:12:36;99333.84;;;6.51;100.00
28306;BME280;7516;43.570;1.448;2023-03-16T03:15:05;99330.59;;;6.49;100.00
28306;BME280;7516;43.570;1.448;2023-03-16T03:17:32;99329.13;;;6.47;100.00
28306;BME280;7516;43.570;1.448;2023-03-16T03:20:01;99328.31;;;6.46;100.00
28306;BME280;7516;43.570;1.448;2023-03-16T03:22:33;99330.59;;;6.49;100.00
28306;BME280;7516;43.570;1.448;2023-03-16T03:25:00;99318.72;;;6.47;100.00
28306;BME280;7516;43.570;1.448;2023-03-16T03:27:28;99318.19;;;6.43;100.00
28306;BME280;7516;43.570;1.448;2023-03-16T03:29:55;99309.75;;;6.41;100.00
28306;BME280;7516;43.570;1.448;2023-03-16T03:32:23;99312.34;;;6.41;100.00
28306;BME280;7516;43.570;1.448;2023-03-16T03:34:50;99313.47;;;6.38;100.00
28306;BME280;7516;43.570;1.448;2023-03-16T03:37:19;99314.28;;;6.39;100.00
28306;BME280;7516;43.570;1.448;2023-03-16T03:39:47;99299.66;;;6.38;100.00
28306;BME280;7516;43.570;1.448;2023-03-16T03:42:14;99298.69;;;6.39;100.00
28306;BME280;7516;43.570;1.448;2023-03-16T03:44:42;99303.22;;;6.37;100.00
28306;BME280;7516;43.570;1.448;2023-03-16T03:47:09;99300.31;;;6.40;100.00
28306;BME280;7516;43.570;1.448;2023-03-16T03:49:36;99305.50;;;6.40;100.00
28306;BME280;7516;43.570;1.448;2023-03-16T03:52:04;99303.56;;;6.42;100.00
28306;BME280;7516;43.570;1.448;2023-03-16T03:54:33;99301.94;;;6.41;100.00
28306;BME280;7516;43.570;1.448;2023-03-16T03:57:01;99293.97;;;6.42;100.00
28306;BME280;7516;43.570;1.448;2023-03-16T03:59:28;99294.16;;;6.49;100.00
28306;BME280;7516;43.570;1.448;2023-03-16T04:01:56;99288.81;;;6.51;100.00
28306;BME280;7516;43.570;1.448;2023-03-16T04:04:23;99278.22;;;6.52;100.00
28306;BME280;7516;43.570;1.448;2023-03-16T04:06:51;99269.28;;;6.55;100.00
28306;BME280;7516;43.570;1.448;2023-03-16T04:09:18;99270.63;;;6.59;100.00
28306;BME280;7516;43.570;1.448;2023-03-16T04:11:47;99281.19;;;6.57;100.00
28306;BME280;7516;43.570;1.448;2023-03-16T04:14:15;99272.41;;;6.58;100.00
28306;BME280;7516;43.570;1.448;2023-03-16T04:16:42;99274.03;;;6.59;100.00
28306;BME280;7516;43.570;1.448;2023-03-16T04:19:10;99269.00;;;6.58;100.00
28306;BME280;7516;43.570;1.448;2023-03-16T04:21:37;99270.78;;;6.57;100.00
28306;BME280;7516;43.570;1.448;2023-03-16T04:24:05;99277.63;;;6.58;100.00
28306;BME280;7516;43.570;1.448;2023-03-16T04:26:33;99279.25;;;6.59;100.00
28306;BME280;7516;43.570;1.448;2023-03-16T04:29:02;99272.41;;;6.58;100.00
28306;BME280;7516;43.570;1.448;2023-03-16T04:31:29;99272.41;;;6.58;100.00
28306;BME280;7516;43.570;1.448;2023-03-16T04:33:57;99275.66;;;6.60;100.00
28306;BME280;7516;43.570;1.448;2023-03-16T04:36:24;99267.22;;;6.58;100.00
28306;BME280;7516;43.570;1.448;2023-03-16T04:38:52;99277.63;;;6.58;100.00
28306;BME280;7516;43.570;1.448;2023-03-16T04:41:20;99272.41;;;6.58;100.00
28306;BME280;7516;43.570;1.448;2023-03-16T04:43:47;99275.00;;;6.58;100.00
28306;BME280;7516;43.570;1.448;2023-03-16T04:46:16;99278.75;;;6.56;100.00
28306;BME280;7516;43.570;1.448;2023-03-16T04:48:43;99273.38;;;6.57;100.00
28306;BME280;7516;43.570;1.448;2023-03-16T04:51:11;99282.16;;;6.56;100.00
28306;BME280;7516;43.570;1.448;2023-03-16T04:53:38;99278.75;;;6.56;100.00
28306;BME280;7516;43.570;1.448;2023-03-16T04:56:07;99277.09;;;6.55;100.00
28306;BME280;7516;43.570;1.448;2023-03-16T04:58:34;99276.28;;;6.54;100.00
28306;BME280;7516;43.570;1.448;2023-03-16T05:01:02;99270.13;;;6.55;100.00
28306;BME280;7516;43.570;1.448;2023-03-16T05:03:30;99278.75;;;6.56;100.00
28306;BME280;7516;43.570;1.448;2023-03-16T05:06:00;99273.84;;;6.53;100.00
28306;BME280;7516;43.570;1.448;2023-03-16T05:08:27;99268.78;;;6.51;100.00
28306;BME280;7516;43.570;1.448;2023-03-16T05:10:56;99268.63;;;6.53;100.00
28306;BME280;7516;43.570;1.448;2023-03-16T05:13:24;99260.97;;;6.51;100.00
28306;BME280;7516;43.570;1.448;2023-03-16T05:15:51;99265.38;;;6.51;100.00
28306;BME280;7516;43.570;1.448;2023-03-16T05:18:19;99263.91;;;6.48;100.00
28306;BME280;7516;43.570;1.448;2023-03-16T05:20:52;99263.25;;;6.46;100.00
28306;BME280;7516;43.570;1.448;2023-03-16T05:23:21;99253.81;;;6.45;100.00
28306;BME280;7516;43.570;1.448;2023-03-16T05:25:50;99251.19;;;6.45;100.00
28306;BME280;7516;43.570;1.448;2023-03-16T05:28:17;99246.16;;;6.43;100.00
28306;BME280;7516;43.570;1.448;2023-03-16T05:30:45;99246.97;;;6.44;100.00
28306;BME280;7516;43.570;1.448;2023-03-16T05:33:13;99241.75;;;6.44;100.00
28306;BME280;7516;43.570;1.448;2023-03-16T05:35:41;99242.72;;;6.43;100.00
28306;BME280;7516;43.570;1.448;2023-03-16T05:38:10;99244.38;;;6.44;100.00
28306;BME280;7516;43.570;1.448;2023-03-16T05:40:38;99239.50;;;6.41;100.00
28306;BME280;7516;43.570;1.448;2023-03-16T05:43:05;99241.09;;;6.42;100.00
28306;BME280;7516;43.570;1.448;2023-03-16T05:45:33;99250.38;;;6.45;100.00
28306;BME280;7516;43.570;1.448;2023-03-16T05:48:00;99250.38;;;6.45;100.00
28306;BME280;7516;43.570;1.448;2023-03-16T05:50:27;99258.03;;;6.46;100.00
28306;BME280;7516;43.570;1.448;2023-03-16T05:52:55;99256.56;;;6.43;100.00
28306;BME280;7516;43.570;1.448;2023-03-16T05:55:24;99246.97;;;6.44;100.00
28306;BME280;7516;43.570;1.448;2023-03-16T05:57:51;99254.94;;;6.42;100.00
28306;BME280;7516;43.570;1.448;2023-03-16T06:00:20;99250.53;;;6.43;100.00
28306;BME280;7516;43.570;1.448;2023-03-16T06:02:49;99250.38;;;6.45;100.00
28306;BME280;7516;43.570;1.448;2023-03-16T06:05:18;99251.19;;;6.45;100.00
28306;BME280;7516;43.570;1.448;2023-03-16T06:07:47;99249.56;;;6.44;100.00
28306;BME280;7516;43.570;1.448;2023-03-16T06:10:16;99250.38;;;6.45;100.00
28306;BME280;7516;43.570;1.448;2023-03-16T06:12:45;99247.31;;;6.49;100.00
28306;BME280;7516;43.570;1.448;2023-03-16T06:15:13;99240.50;;;6.56;100.00
28306;BME280;7516;43.570;1.448;2023-03-16T06:17:40;99249.47;;;6.62;100.00
28306;BME280;7516;43.570;1.448;2023-03-16T06:20:10;99241.34;;;6.65;100.00
28306;BME280;7516;43.570;1.448;2023-03-16T06:22:38;99245.09;;;6.70;100.00
28306;BME280;7516;43.570;1.448;2023-03-16T06:25:07;99242.50;;;6.78;100.00
28306;BME280;7516;43.570;1.448;2023-03-16T06:27:35;99239.91;;;6.87;100.00
28306;BME280;7516;43.570;1.448;2023-03-16T06:30:05;99242.56;;;6.95;100.00
28306;BME280;7516;43.570;1.448;2023-03-16T06:32:33;99245.50;;;7.00;100.00
28306;BME280;7516;43.570;1.448;2023-03-16T06:35:02;99242.22;;;7.06;100.00
28306;BME280;7516;43.570;1.448;2023-03-16T06:37:30;99244.84;;;7.14;100.00
28306;BME280;7516;43.570;1.448;2023-03-16T06:39:57;99241.25;;;7.23;100.00
28306;BME280;7516;43.570;1.448;2023-03-16T06:42:25;99240.13;;;7.34;100.00
28306;BME280;7516;43.570;1.448;2023-03-16T06:44:52;99233.78;;;7.44;100.00
28306;BME280;7516;43.570;1.448;2023-03-16T06:47:21;99236.53;;;7.51;100.00
28306;BME280;7516;43.570;1.448;2023-03-16T06:49:49;99227.91;;;7.59;100.00
28306;BME280;7516;43.570;1.448;2023-03-16T06:52:20;99229.50;;;7.68;100.00
28306;BME280;7516;43.570;1.448;2023-03-16T06:54:47;99222.66;;;7.75;100.00
28306;BME280;7516;43.570;1.448;2023-03-16T06:57:15;99229.03;;;7.80;100.00
28306;BME280;7516;43.570;1.448;2023-03-16T06:59:42;99226.72;;;7.85;100.00
28306;BME280;7516;43.570;1.448;2023-03-16T07:02:11;99230.28;;;7.92;100.00
28306;BME280;7516;43.570;1.448;2023-03-16T07:04:41;99230.94;;;7.94;100.00
28306;BME280;7516;43.570;1.448;2023-03-16T07:07:09;99230.59;;;7.98;100.00
28306;BME280;7516;43.570;1.448;2023-03-16T07:09:36;99230.75;;;8.04;100.00
28306;BME280;7516;43.570;1.448;2023-03-16T07:12:04;99224.50;;;8.13;100.00
28306;BME280;7516;43.570;1.448;2023-03-16T07:14:32;99227.25;;;8.20;100.00
28306;BME280;7516;43.570;1.448;2023-03-16T07:16:59;99227.41;;;8.26;100.00
28306;BME280;7516;43.570;1.448;2023-03-16T07:19:27;99230.34;;;8.32;100.00
28306;BME280;7516;43.570;1.448;2023-03-16T07:21:56;99226.72;;;8.41;100.00
28306;BME280;7516;43.570;1.448;2023-03-16T07:24:24;99230.00;;;8.43;100.00
28306;BME280;7516;43.570;1.448;2023-03-16T07:26:52;99230.75;;;8.51;100.00
28306;BME280;7516;43.570;1.448;2023-03-16T07:29:20;99231.53;;;8.60;100.00
28306;BME280;7516;43.570;1.448;2023-03-16T07:31:48;99236.88;;;8.66;100.00
28306;BME280;7516;43.570;1.448;2023-03-16T07:34:15;99232.59;;;8.74;99.35
28306;BME280;7516;43.570;1.448;2023-03-16T07:36:43;99242.81;;;8.83;99.65
28306;BME280;7516;43.570;1.448;2023-03-16T07:39:12;99245.72;;;8.88;98.19
28306;BME280;7516;43.570;1.448;2023-03-16T07:41:39;99244.88;;;8.96;96.39
28306;BME280;7516;43.570;1.448;2023-03-16T07:44:07;99242.38;;;9.02;95.40
28306;BME280;7516;43.570;1.448;2023-03-16T07:46:34;99238.25;;;9.08;93.97
28306;BME280;7516;43.570;1.448;2023-03-16T07:49:02;99242.59;;;9.16;90.35
28306;BME280;7516;43.570;1.448;2023-03-16T07:51:29;99248.78;;;9.23;88.70
28306;BME280;7516;43.570;1.448;2023-03-16T07:53:56;99253.13;;;9.30;87.46
28306;BME280;7516;43.570;1.448;2023-03-16T07:56:25;99261.06;;;9.37;83.75
28306;BME280;7516;43.570;1.448;2023-03-16T07:58:53;99258.56;;;9.43;82.75
28306;BME280;7516;43.570;1.448;2023-03-16T08:01:20;99244.97;;;9.48;83.29
28306;BME280;7516;43.570;1.448;2023-03-16T08:03:48;99246.06;;;9.54;80.40
28306;BME280;7516;43.570;1.448;2023-03-16T08:06:16;99245.16;;;9.61;80.70
28306;BME280;7516;43.570;1.448;2023-03-16T08:08:43;99239.25;;;9.67;76.50
28306;BME280;7516;43.570;1.448;2023-03-16T08:11:11;99246.38;;;9.73;76.97
28306;BME280;7516;43.570;1.448;2023-03-16T08:13:40;99236.81;;;9.80;76.27
28306;BME280;7516;43.570;1.448;2023-03-16T08:16:09;99236.28;;;9.85;74.42
28306;BME280;7516;43.570;1.448;2023-03-16T08:18:38;99240.25;;;9.96;72.94
28306;BME280;7516;43.570;1.448;2023-03-16T08:21:06;99241.34;;;10.01;72.98
28306;BME280;7516;43.570;1.448;2023-03-16T08:23:34;99240.81;;;10.06;73.05
28306;BME280;7516;43.570;1.448;2023-03-16T08:26:02;99246.94;;;10.13;73.73
28306;BME280;7516;43.570;1.448;2023-03-16T08:28:34;99236.59;;;10.20;73.41
28306;BME280;7516;43.570;1.448;2023-03-16T08:31:07;99231.44;;;10.26;70.38
28306;BME280;7516;43.570;1.448;2023-03-16T08:33:35;99238.38;;;10.34;69.15
28306;BME280;7516;43.570;1.448;2023-03-16T08:36:05;99242.47;;;10.36;72.22
28306;BME280;7516;43.570;1.448;2023-03-16T08:38:33;99241.91;;;10.41;72.12
28306;BME280;7516;43.570;1.448;2023-03-16T08:41:01;99240.97;;;10.48;68.43
28306;BME280;7516;43.570;1.448;2023-03-16T08:43:28;99241.09;;;10.55;67.33
28306;BME280;7516;43.570;1.448;2023-03-16T08:45:55;99236.91;;;10.61;67.41
28306;BME280;7516;43.570;1.448;2023-03-16T08:48:25;99247.63;;;10.66;65.00
28306;BME280;7516;43.570;1.448;2023-03-16T08:50:53;99234.63;;;10.72;68.15
28306;BME280;7516;43.570;1.448;2023-03-16T08:53:21;99248.16;;;10.76;67.02
28306;BME280;7516;43.570;1.448;2023-03-16T08:55:48;99238.56;;;10.83;67.00
28306;BME280;7516;43.570;1.448;2023-03-16T08:58:16;99234.59;;;10.87;64.66
28306;BME280;7516;43.570;1.448;2023-03-16T09:00:44;99232.19;;;10.92;64.80
28306;BME280;7516;43.570;1.448;2023-03-16T09:03:12;99233.09;;;10.99;65.30
28306;BME280;7516;43.570;1.448;2023-03-16T09:05:41;99236.78;;;11.05;65.49
28306;BME280;7516;43.570;1.448;2023-03-16T09:08:09;99229.34;;;11.08;63.83
28306;BME280;7516;43.570;1.448;2023-03-16T09:10:37;99233.84;;;11.14;64.91
28306;BME280;7516;43.570;1.448;2023-03-16T09:13:05;99238.97;;;11.22;63.91
28306;BME280;7516;43.570;1.448;2023-03-16T09:15:33;99230.34;;;11.28;65.71
28306;BME280;7516;43.570;1.448;2023-03-16T09:18:01;99238.66;;;11.32;62.92
28306;BME280;7516;43.570;1.448;2023-03-16T09:20:31;99231.19;;;11.36;63.76
28306;BME280;7516;43.570;1.448;2023-03-16T09:23:00;99238.94;;;11.44;63.24
28306;BME280;7516;43.570;1.448;2023-03-16T09:25:29;99234.75;;;11.49;60.41
28306;BME280;7516;43.570;1.448;2023-03-16T09:27:57;99241.25;;;11.53;61.68
28306;BME280;7516;43.570;1.448;2023-03-16T09:30:25;99234.25;;;11.60;61.57
28306;BME280;7516;43.570;1.448;2023-03-16T09:32:53;99242.97;;;11.67;60.53
28306;BME280;7516;43.570;1.448;2023-03-16T09:35:21;99238.16;;;11.71;61.55
28306;BME280;7516;43.570;1.448;2023-03-16T09:37:48;99239.44;;;11.75;61.49
28306;BME280;7516;43.570;1.448;2023-03-16T09:40:23;99239.06;;;11.78;60.00
28306;BME280;7516;43.570;1.448;2023-03-16T09:43:02;99233.41;;;11.81;59.90
28306;BME280;7516;43.570;1.448;2023-03-16T09:45:36;99237.09;;;11.87;59.66
28306;BME280;7516;43.570;1.448;2023-03-16T09:48:09;99227.00;;;11.90;59.06
28306;BME280;7516;43.570;1.448;2023-03-16T09:50:38;99234.72;;;11.98;60.27
28306;BME280;7516;43.570;1.448;2023-03-16T09:53:17;99226.69;;;12.06;58.86
28306;BME280;7516;43.570;1.448;2023-03-16T09:55:52;99213.81;;;12.12;59.63
28306;BME280;7516;43.570;1.448;2023-03-16T09:58:22;99234.66;;;12.20;59.97
28306;BME280;7516;43.570;1.448;2023-03-16T10:00:58;99231.25;;;12.26;58.33
28306;BME280;7516;43.570;1.448;2023-03-16T10:03:35;99233.88;;;12.26;59.24
28306;BME280;7516;43.570;1.448;2023-03-16T10:06:10;99221.56;;;12.33;59.56
28306;BME280;7516;43.570;1.448;2023-03-16T10:08:40;99223.66;;;12.44;58.93
28306;BME280;7516;43.570;1.448;2023-03-16T10:11:23;99239.03;;;12.47;58.76
28306;BME280;7516;43.570;1.448;2023-03-16T10:13:55;99234.63;;;12.54;57.71
28306;BME280;7516;43.570;1.448;2023-03-16T10:16:29;99218.03;;;12.60;55.39
28306;BME280;7516;43.570;1.448;2023-03-16T10:19:02;99219.28;;;12.64;56.17
28306;BME280;7516;43.570;1.448;2023-03-16T10:21:37;99210.97;;;12.67;57.26
28306;BME280;7516;43.570;1.448;2023-03-16T10:24:15;99212.84;;;12.73;55.42
28306;BME280;7516;43.570;1.448;2023-03-16T10:26:52;99204.75;;;12.75;55.94
28306;BME280;7516;43.570;1.448;2023-03-16T10:29:21;99213.03;;;12.78;55.74
28306;BME280;7516;43.570;1.448;2023-03-16T10:31:49;99212.84;;;12.87;54.18
28306;BME280;7516;43.570;1.448;2023-03-16T10:34:16;99222.59;;;12.93;55.34
28306;BME280;7516;43.570;1.448;2023-03-16T10:36:45;99217.53;;;12.98;54.69
28306;BME280;7516;43.570;1.448;2023-03-16T10:39:13;99205.22;;;13.05;55.59
28306;BME280;7516;43.570;1.448;2023-03-16T10:41:43;99230.31;;;13.07;54.58
28306;BME280;7516;43.570;1.448;2023-03-16T10:44:15;99228.06;;;13.11;55.55
28306;BME280;7516;43.570;1.448;2023-03-16T10:46:45;99225.50;;;13.17;54.98
28306;BME280;7516;43.570;1.448;2023-03-16T10:49:21;99217.00;;;13.22;56.09
28306;BME280;7516;43.570;1.448;2023-03-16T10:51:52;99217.59;;;13.24;54.87
28306;BME280;7516;43.570;1.448;2023-03-16T10:54:27;99210.53;;;13.31;55.85
28306;BME280;7516;43.570;1.448;2023-03-16T10:56:56;99216.19;;;13.41;53.41
28306;BME280;7516;43.570;1.448;2023-03-16T10:59:30;99195.94;;;13.48;54.41
28306;BME280;7516;43.570;1.448;2023-03-16T11:02:00;99204.06;;;13.53;54.30
28306;BME280;7516;43.570;1.448;2023-03-16T11:04:31;99200.81;;;13.58;54.59
28306;BME280;7516;43.570;1.448;2023-03-16T11:06:59;99195.53;;;13.65;56.21
28306;BME280;7516;43.570;1.448;2023-03-16T11:09:31;99200.00;;;13.71;55.13
28306;BME280;7516;43.570;1.448;2023-03-16T11:11:59;99194.28;;;13.74;57.37
28306;BME280;7516;43.570;1.448;2023-03-16T11:14:33;99191.84;;;13.85;54.54
28306;BME280;7516;43.570;1.448;2023-03-16T11:17:05;99195.72;;;13.89;53.95
28306;BME280;7516;43.570;1.448;2023-03-16T11:19:37;99187.41;;;13.86;54.76
28306;BME280;7516;43.570;1.448;2023-03-16T11:22:11;99199.34;;;13.95;53.79
28306;BME280;7516;43.570;1.448;2023-03-16T11:24:45;99195.03;;;14.07;52.90
28306;BME280;7516;43.570;1.448;2023-03-16T11:27:21;99185.69;;;14.11;53.15
28306;BME280;7516;43.570;1.448;2023-03-16T11:30:08;99186.69;;;14.17;53.73
28306;BME280;7516;43.570;1.448;2023-03-16T11:32:40;99203.09;;;14.19;54.65
28306;BME280;7516;43.570;1.448;2023-03-16T11:35:13;99201.03;;;14.27;52.24
28306;BME280;7516;43.570;1.448;2023-03-16T11:37:51;99188.06;;;14.26;52.60
28306;BME280;7516;43.570;1.448;2023-03-16T11:40:44;99190.88;;;14.38;53.14
28306;BME280;7516;43.570;1.448;2023-03-16T11:43:39;99196.16;;;14.38;51.57
28306;BME280;7516;43.570;1.448;2023-03-16T11:46:16;99171.59;;;14.44;52.03
28306;BME280;7516;43.570;1.448;2023-03-16T11:48:52;99187.19;;;14.52;51.15
28306;BME280;7516;43.570;1.448;2023-03-16T11:51:34;99191.03;;;14.56;50.94
28306;BME280;7516;43.570;1.448;2023-03-16T11:54:12;99185.34;;;14.59;51.64
28306;BME280;7516;43.570;1.448;2023-03-16T11:56:47;99194.44;;;14.63;52.15
28306;BME280;7516;43.570;1.448;2023-03-16T11:59:41;99195.59;;;14.74;52.50
28306;BME280;7516;43.570;1.448;2023-03-16T12:02:36;99192.75;;;14.75;50.41
28306;BME280;7516;43.570;1.448;2023-03-16T12:05:32;99195.94;;;14.84;51.53
28306;BME280;7516;43.570;1.448;2023-03-16T12:08:13;99186.97;;;14.91;50.90
28306;BME280;7516;43.570;1.448;2023-03-16T12:10:50;99184.28;;;14.98;50.13
28306;BME280;7516;43.570;1.448;2023-03-16T12:13:30;99182.25;;;15.00;51.16
28306;BME280;7516;43.570;1.448;2023-03-16T12:16:04;99180.41;;;15.00;50.40
28306;BME280;7516;43.570;1.448;2023-03-16T12:18:41;99189.28;;;15.06;52.80
28306;BME280;7516;43.570;1.448;2023-03-16T12:21:14;99200.28;;;15.03;50.43
28306;BME280;7516;43.570;1.448;2023-03-16T12:23:50;99194.97;;;15.10;49.93
28306;BME280;7516;43.570;1.448;2023-03-16T12:26:20;99199.59;;;15.14;50.06
28306;BME280;7516;43.570;1.448;2023-03-16T12:28:50;99195.31;;;15.20;49.81
28306;BME280;7516;43.570;1.448;2023-03-16T12:31:22;99180.81;;;15.29;50.18
28306;BME280;7516;43.570;1.448;2023-03-16T12:34:01;99181.84;;;15.28;50.16
28306;BME280;7516;43.570;1.448;2023-03-16T12:39:55;99175.69;;;15.34;50.80
28306;BME280;7516;43.570;1.448;2023-03-16T12:42:41;99173.59;;;15.42;51.31
28306;BME280;7516;43.570;1.448;2023-03-16T12:45:18;99177.03;;;15.43;50.56
28306;BME280;7516;43.570;1.448;2023-03-16T12:47:56;99176.75;;;15.51;50.49
28306;BME280;7516;43.570;1.448;2023-03-16T12:50:28;99179.16;;;15.59;50.54
28306;BME280;7516;43.570;1.448;2023-03-16T12:52:55;99171.38;;;15.64;49.56
28306;BME280;7516;43.570;1.448;2023-03-16T12:55:25;99170.50;;;15.70;51.05
28306;BME280;7516;43.570;1.448;2023-03-16T12:57:59;99164.00;;;15.73;49.76
28306;BME280;7516;43.570;1.448;2023-03-16T13:00:36;99165.59;;;15.74;49.51
28306;BME280;7516;43.570;1.448;2023-03-16T13:03:13;99160.69;;;15.77;48.58
28306;BME280;7516;43.570;1.448;2023-03-16T13:05:49;99181.00;;;15.77;49.12
28306;BME280;7516;43.570;1.448;2023-03-16T13:08:19;99165.97;;;15.77;49.15
28306;BME280;7516;43.570;1.448;2023-03-16T13:11:01;99155.91;;;15.86;49.79
28306;BME280;7516;43.570;1.448;2023-03-16T13:13:29;99159.22;;;16.00;50.53
28306;BME280;7516;43.570;1.448;2023-03-16T13:16:04;99148.50;;;16.13;49.26
28306;BME280;7516;43.570;1.448;2023-03-16T13:18:37;99146.44;;;16.15;48.77
28306;BME280;7516;43.570;1.448;2023-03-16T13:21:20;99144.59;;;16.15;49.99
28306;BME280;7516;43.570;1.448;2023-03-16T13:23:56;99138.19;;;16.23;49.72
28306;BME280;7516;43.570;1.448;2023-03-16T13:26:37;99125.63;;;16.18;49.71
28306;BME280;7516;43.570;1.448;2023-03-16T13:29:20;99131.72;;;16.19;50.65
28306;BME280;7516;43.570;1.448;2023-03-16T13:31:49;99117.06;;;16.23;49.52